createdAt,value
2019-05-11T00:02:25.029Z,3.40
2019-05-11T00:04:54.646Z,3.46
2019-05-11T00:18:03.039Z,3.30
2019-05-11T00:20:33.977Z,3.22
2019-05-11T00:23:02.861Z,3.21
2019-05-11T00:25:31.716Z,3.14
2019-05-11T00:28:00.706Z,3.04
2019-05-11T00:30:29.580Z,2.98
2019-05-11T00:32:59.190Z,3.11
2019-05-11T00:35:28.029Z,3.08
2019-05-11T00:37:57.037Z,3.07
2019-05-11T00:40:25.961Z,2.94
2019-05-11T00:42:54.809Z,3.01
2019-05-11T00:45:23.694Z,3.11
2019-05-11T00:47:52.689Z,2.95
2019-05-11T00:50:37.585Z,2.94
2019-05-11T00:52:52.405Z,2.76
2019-05-11T00:55:21.340Z,2.84
2019-05-11T00:57:50.239Z,2.80
2019-05-11T01:00:19.285Z,2.93
2019-05-11T01:02:49.076Z,2.88
2019-05-11T01:05:18.071Z,2.98
2019-05-11T01:07:46.847Z,2.84
2019-05-11T01:10:25.706Z,2.72
2019-05-11T01:12:46.791Z,2.87
2019-05-11T01:15:16.088Z,2.77
2019-05-11T01:17:44.987Z,2.76
2019-05-11T01:20:14.256Z,2.80
2019-05-11T01:22:43.207Z,2.73
2019-05-11T01:25:12.245Z,2.60
2019-05-11T01:27:41.065Z,2.53
2019-05-11T01:30:10.497Z,2.68
2019-05-11T01:32:39.712Z,2.78
2019-05-11T01:35:08.694Z,2.83
2019-05-11T01:37:37.786Z,2.57
2019-05-11T01:40:07.527Z,2.57
2019-05-11T01:42:36.522Z,2.42
2019-05-11T01:45:05.672Z,2.57
2019-05-11T01:47:34.493Z,2.55
2019-05-11T01:50:03.484Z,2.55
2019-05-11T01:52:32.330Z,2.85
2019-05-11T01:55:02.936Z,2.73
2019-05-11T01:57:34.005Z,2.30
2019-05-11T02:00:03.115Z,2.31
2019-05-11T02:02:31.928Z,2.47
2019-05-11T02:05:20.914Z,2.50
2019-05-11T02:07:49.815Z,2.39
2019-05-11T02:10:18.895Z,2.54
2019-05-11T02:12:48.260Z,2.61
2019-05-11T02:15:17.354Z,2.46
2019-05-11T02:17:46.180Z,2.25
2019-05-11T02:20:15.399Z,2.33
2019-05-11T02:22:44.308Z,2.30
2019-05-11T02:25:13.751Z,2.28
2019-05-11T02:27:43.129Z,2.24
2019-05-11T02:30:12.490Z,2.24
2019-05-11T02:32:41.453Z,2.33
2019-05-11T02:35:12.410Z,2.29
2019-05-11T02:37:41.196Z,2.10
2019-05-11T02:40:11.864Z,2.05
2019-05-11T02:42:41.160Z,2.15
2019-05-11T02:45:10.536Z,2.07
2019-05-11T02:47:39.490Z,2.25
2019-05-11T02:50:08.853Z,2.29
2019-05-11T02:52:38.662Z,2.36
2019-05-11T02:55:08.194Z,2.44
2019-05-11T02:57:38.146Z,2.65
2019-05-11T03:00:08.245Z,2.52
2019-05-11T03:02:37.062Z,2.44
2019-05-11T03:05:07.876Z,2.49
2019-05-11T03:07:36.824Z,2.60
2019-05-11T03:10:07.030Z,2.99
2019-05-11T03:12:36.782Z,2.93
2019-05-11T03:15:06.261Z,2.79
2019-05-11T03:17:35.214Z,2.66
2019-05-11T03:20:04.238Z,2.63
2019-05-11T03:22:33.171Z,2.79
2019-05-11T03:25:02.151Z,2.55
2019-05-11T03:27:31.044Z,2.52
2019-05-11T03:30:01.495Z,2.74
2019-05-11T03:32:30.550Z,2.52
2019-05-11T03:34:59.637Z,2.43
2019-05-11T03:37:28.493Z,2.47
2019-05-11T03:39:57.545Z,2.52
2019-05-11T03:42:27.223Z,2.49
2019-05-11T03:44:56.231Z,2.53
2019-05-11T03:47:25.290Z,2.54
2019-05-11T03:49:54.124Z,2.48
2019-05-11T03:52:22.996Z,2.25
2019-05-11T03:54:51.834Z,2.41
2019-05-11T03:57:21.062Z,2.68
2019-05-11T03:59:50.358Z,2.39
2019-05-11T04:02:19.201Z,2.37
2019-05-11T04:04:48.033Z,2.43
2019-05-11T04:07:16.981Z,2.39
2019-05-11T04:09:45.846Z,2.36
2019-05-11T04:12:32.921Z,2.37
2019-05-11T04:14:45.656Z,2.48
2019-05-11T04:17:14.495Z,2.40
2019-05-11T04:19:43.327Z,2.77
2019-05-11T04:22:12.256Z,2.96
2019-05-11T04:24:41.167Z,3.02
2019-05-11T04:27:10.140Z,3.35
2019-05-11T04:29:38.958Z,3.32
2019-05-11T04:32:07.907Z,3.42
2019-05-11T04:34:37.068Z,3.49
2019-05-11T04:37:07.601Z,3.69
2019-05-11T04:39:36.863Z,3.68
2019-05-11T04:42:05.747Z,3.64
2019-05-11T04:44:34.882Z,3.80
2019-05-11T04:47:03.755Z,3.79
2019-05-11T04:49:32.604Z,3.85
2019-05-11T04:52:01.426Z,4.05
2019-05-11T04:54:30.442Z,4.32
2019-05-11T04:56:59.415Z,4.34
2019-05-11T04:59:28.293Z,4.44
2019-05-11T05:01:57.260Z,4.51
2019-05-11T05:04:26.073Z,4.54
2019-05-11T05:06:59.791Z,4.60
2019-05-11T05:09:25.803Z,4.94
2019-05-11T05:11:54.687Z,4.90
2019-05-11T05:14:23.575Z,4.91
2019-05-11T05:16:52.469Z,5.15
2019-05-11T05:19:21.343Z,5.12
2019-05-11T05:21:50.178Z,5.21
2019-05-11T05:24:19.080Z,5.33
2019-05-11T05:26:47.984Z,5.53
2019-05-11T05:29:16.832Z,6.04
2019-05-11T05:31:45.800Z,6.49
2019-05-11T05:34:14.658Z,6.96
2019-05-11T05:36:43.469Z,6.93
2019-05-11T05:39:12.435Z,6.95
2019-05-11T05:41:42.858Z,8.31
2019-05-11T05:44:11.827Z,9.36
2019-05-11T05:46:40.862Z,7.20
2019-05-11T05:49:09.772Z,8.57
2019-05-11T05:51:38.631Z,12.58
2019-05-11T05:54:07.499Z,12.45
2019-05-11T05:56:36.304Z,12.80
2019-05-11T05:59:05.265Z,12.80
2019-05-11T06:01:34.116Z,13.77
2019-05-11T06:04:03.278Z,13.74
2019-05-11T06:06:32.081Z,13.85
2019-05-11T06:09:00.921Z,14.84
2019-05-11T06:11:30.313Z,14.67
2019-05-11T06:13:59.473Z,15.02
2019-05-11T06:16:28.353Z,16.11
2019-05-11T06:18:57.290Z,15.26
2019-05-11T06:21:26.147Z,16.13
2019-05-11T06:23:55.312Z,15.11
2019-05-11T06:26:24.301Z,15.01
2019-05-11T06:28:53.098Z,15.61
2019-05-11T06:31:21.918Z,14.36
2019-05-11T06:33:50.869Z,15.01
2019-05-11T06:36:19.935Z,14.90
2019-05-11T06:38:49.047Z,14.01
2019-05-11T06:41:17.892Z,13.76
2019-05-11T06:44:00.746Z,14.30
2019-05-11T06:46:17.601Z,13.84
2019-05-11T06:48:46.550Z,12.70
2019-05-11T06:51:15.409Z,12.61
2019-05-11T06:53:44.356Z,12.33
2019-05-11T06:56:13.143Z,12.13
2019-05-11T06:58:45.388Z,12.29
2019-05-11T07:01:12.980Z,11.61
2019-05-11T07:03:41.793Z,12.75
2019-05-11T07:06:10.671Z,12.01
2019-05-11T07:08:39.534Z,11.29
2019-05-11T07:11:08.553Z,11.49
2019-05-11T07:13:37.849Z,11.73
2019-05-11T07:16:06.891Z,12.02
2019-05-11T07:18:35.752Z,10.62
2019-05-11T07:21:04.621Z,10.08
2019-05-11T07:23:33.550Z,10.42
2019-05-11T07:26:03.557Z,9.96
2019-05-11T07:28:32.373Z,9.51
2019-05-11T07:31:01.462Z,9.76
2019-05-11T07:33:30.633Z,10.06
2019-05-11T07:36:00.459Z,9.99
2019-05-11T07:38:35.452Z,9.33
2019-05-11T07:41:08.785Z,10.11
2019-05-11T07:43:38.124Z,10.11
2019-05-11T07:46:08.607Z,10.14
2019-05-11T07:48:38.736Z,11.02
2019-05-11T07:51:08.902Z,11.27
2019-05-11T07:53:40.630Z,10.74
2019-05-11T07:56:47.887Z,11.45
2019-05-11T07:59:18.422Z,11.12
2019-05-11T08:01:50.539Z,11.12
2019-05-11T08:04:20.154Z,11.45
2019-05-11T08:06:49.107Z,11.66
2019-05-11T08:09:18.783Z,11.77
2019-05-11T08:14:24.597Z,11.75
2019-05-11T08:17:08.746Z,11.99
2019-05-11T08:19:38.578Z,12.11
2019-05-11T08:22:08.678Z,11.75
2019-05-11T08:24:37.881Z,12.81
2019-05-11T08:27:08.496Z,12.23
2019-05-11T08:29:38.619Z,12.59
2019-05-11T08:32:08.300Z,12.57
2019-05-11T08:34:39.613Z,12.54
2019-05-11T08:37:08.960Z,13.32
2019-05-11T08:39:44.119Z,13.32
2019-05-11T08:42:13.149Z,12.20
2019-05-11T08:44:41.977Z,12.84
2019-05-11T08:47:24.030Z,13.08
2019-05-11T08:49:48.469Z,12.65
2019-05-11T08:52:18.754Z,12.22
2019-05-11T08:54:48.686Z,12.55
2019-05-11T08:57:18.960Z,12.55
2019-05-11T09:00:35.863Z,13.19
2019-05-11T09:03:05.832Z,12.85
2019-05-11T09:05:35.338Z,13.12
2019-05-11T09:08:05.017Z,12.81
2019-05-11T09:10:36.850Z,12.51
2019-05-11T09:13:04.674Z,12.49
2019-05-11T09:15:38.254Z,12.85
2019-05-11T09:18:04.395Z,12.72
2019-05-11T09:20:33.211Z,12.72
2019-05-11T09:23:03.159Z,12.91
2019-05-11T09:25:48.946Z,13.15
2019-05-11T09:28:18.272Z,13.81
2019-05-11T09:30:48.341Z,13.81
2019-05-11T09:33:20.174Z,13.94
2019-05-11T09:35:53.102Z,13.50
2019-05-11T09:38:19.672Z,13.90
2019-05-11T09:40:51.434Z,13.17
2019-05-11T09:43:20.452Z,13.17
2019-05-11T09:48:48.447Z,13.70
2019-05-11T09:51:18.438Z,14.16
2019-05-11T09:53:48.449Z,13.97
2019-05-11T09:56:18.494Z,14.18
2019-05-11T09:58:48.162Z,13.76
2019-05-11T10:01:18.243Z,13.88
2019-05-11T10:03:48.316Z,13.91
2019-05-11T10:06:18.922Z,14.19
2019-05-11T10:08:48.870Z,13.86
2019-05-11T10:11:20.151Z,13.64
2019-05-11T10:13:52.665Z,13.91
2019-05-11T10:16:22.056Z,13.65
2019-05-11T10:18:51.037Z,13.62
2019-05-11T10:21:20.059Z,13.90
2019-05-11T10:23:49.227Z,14.08
2019-05-11T10:26:18.845Z,14.14
2019-05-11T10:28:48.323Z,14.62
2019-05-11T10:31:18.195Z,14.33
2019-05-11T10:33:48.969Z,13.80
2019-05-11T10:36:19.016Z,14.78
2019-05-11T10:38:48.880Z,14.01
2019-05-11T10:41:18.367Z,14.34
2019-05-11T10:43:48.963Z,15.05
2019-05-11T10:46:22.994Z,14.81
2019-05-11T10:48:48.825Z,14.19
2019-05-11T10:51:18.554Z,14.13
2019-05-11T10:53:51.248Z,13.49
2019-05-11T10:56:19.610Z,14.28
2019-05-11T10:58:50.284Z,14.56
2019-05-11T11:04:24.762Z,13.99
2019-05-11T11:06:55.836Z,14.44
2019-05-11T11:09:24.881Z,14.61
2019-05-11T11:11:53.881Z,15.31
2019-05-11T11:14:23.917Z,15.03
2019-05-11T11:16:52.937Z,15.13
2019-05-11T11:19:22.042Z,14.63
2019-05-11T11:21:51.216Z,14.80
2019-05-11T11:24:20.134Z,15.10
2019-05-11T11:26:49.363Z,15.40
2019-05-11T11:29:18.540Z,15.09
2019-05-11T11:31:48.139Z,15.24
2019-05-11T11:34:18.862Z,15.02
2019-05-11T11:36:48.477Z,15.77
2019-05-11T11:39:18.694Z,15.67
2019-05-11T11:41:48.594Z,14.79
2019-05-11T11:44:18.507Z,14.78
2019-05-11T11:46:54.499Z,15.31
2019-05-11T11:49:19.080Z,14.69
2019-05-11T11:51:48.550Z,14.83
2019-05-11T11:54:18.327Z,15.10
2019-05-11T11:56:48.528Z,15.43
2019-05-11T11:59:18.080Z,14.67
2019-05-11T12:01:48.797Z,15.88
2019-05-11T12:04:18.930Z,16.26
2019-05-11T12:06:49.000Z,15.96
2019-05-11T12:09:18.396Z,15.91
2019-05-11T12:11:48.578Z,14.34
2019-05-11T12:14:18.658Z,14.88
2019-05-11T12:17:04.878Z,14.45
2019-05-11T12:19:27.865Z,15.01
2019-05-11T12:21:58.088Z,15.66
2019-05-11T12:24:28.844Z,15.57
2019-05-11T12:26:58.719Z,15.63
2019-05-11T12:29:28.243Z,14.73
2019-05-11T12:31:59.252Z,15.33
2019-05-11T12:34:28.519Z,15.84
2019-05-11T12:36:58.111Z,15.18
2019-05-11T12:39:28.276Z,15.67
2019-05-11T12:41:58.950Z,15.34
2019-05-11T12:44:28.904Z,15.62
2019-05-11T12:47:01.467Z,15.42
2019-05-11T12:49:30.506Z,15.13
2019-05-11T12:51:59.563Z,15.18
2019-05-11T12:54:33.541Z,15.49
2019-05-11T12:57:01.238Z,15.47
2019-05-11T12:59:30.292Z,15.32
2019-05-11T13:01:59.283Z,15.07
2019-05-11T13:04:28.464Z,15.74
2019-05-11T13:06:58.188Z,15.75
2019-05-11T13:09:48.775Z,15.76
2019-05-11T13:12:18.674Z,16.34
2019-05-11T13:14:50.344Z,16.20
2019-05-11T13:17:34.228Z,16.34
2019-05-11T13:19:53.945Z,15.92
2019-05-11T13:22:22.962Z,15.93
2019-05-11T13:24:51.961Z,15.68
2019-05-11T13:27:21.009Z,15.75
2019-05-11T13:29:50.338Z,15.63
2019-05-11T13:32:19.306Z,15.75
2019-05-11T13:34:48.348Z,16.19
2019-05-11T13:37:18.813Z,15.98
2019-05-11T13:39:48.635Z,15.98
2019-05-11T13:42:19.497Z,15.82
2019-05-11T13:44:48.434Z,16.26
2019-05-11T13:47:18.229Z,15.61
2019-05-11T13:49:48.054Z,15.81
2019-05-11T13:52:18.072Z,15.80
2019-05-11T13:54:48.344Z,15.86
2019-05-11T13:57:18.163Z,16.10
2019-05-11T13:59:47.740Z,15.79
2019-05-11T14:07:34.488Z,16.05
2019-05-11T14:10:03.433Z,15.81
2019-05-11T14:12:32.331Z,15.79
2019-05-11T14:15:12.091Z,15.97
2019-05-11T14:17:40.996Z,15.65
2019-05-11T14:20:25.048Z,15.93
2019-05-11T14:22:53.916Z,15.74
2019-05-11T14:25:27.317Z,15.45
2019-05-11T14:27:59.589Z,15.66
2019-05-11T14:30:28.317Z,15.35
2019-05-11T14:32:58.061Z,15.28
2019-05-11T14:35:28.011Z,15.66
2019-05-11T14:37:58.809Z,15.53
2019-05-11T14:40:28.226Z,15.85
2019-05-11T14:42:58.048Z,16.19
2019-05-11T14:45:28.789Z,16.51
2019-05-11T14:47:59.060Z,16.20
2019-05-11T14:50:28.297Z,15.75
2019-05-11T14:52:58.059Z,15.96
2019-05-11T14:55:28.971Z,16.67
2019-05-11T14:57:57.899Z,16.55
2019-05-11T15:00:29.054Z,16.80
2019-05-11T15:02:58.435Z,16.03
2019-05-11T15:05:28.294Z,16.24
2019-05-11T15:07:58.149Z,16.95
2019-05-11T15:10:27.870Z,16.80
2019-05-11T15:12:59.015Z,16.86
2019-05-11T15:15:29.360Z,16.81
2019-05-11T15:17:58.855Z,16.87
2019-05-11T15:20:28.524Z,16.54
2019-05-11T15:22:58.129Z,18.05
2019-05-11T15:25:28.858Z,20.83
2019-05-11T15:27:58.528Z,23.56
2019-05-11T15:30:28.803Z,24.34
2019-05-11T15:32:58.444Z,22.80
2019-05-11T15:35:28.482Z,21.54
2019-05-11T15:37:58.224Z,20.70
2019-05-11T15:40:27.829Z,21.86
2019-05-11T15:42:58.560Z,22.27
2019-05-11T15:45:27.903Z,22.90
2019-05-11T15:47:58.930Z,19.99
2019-05-11T15:50:29.018Z,24.59
2019-05-11T15:52:58.439Z,24.52
2019-05-11T15:55:27.949Z,23.93
2019-05-11T15:58:02.022Z,23.40
2019-05-11T16:00:31.310Z,24.31
2019-05-11T16:03:00.369Z,25.48
2019-05-11T16:05:29.316Z,23.18
2019-05-11T16:08:01.697Z,24.05
2019-05-11T16:10:58.792Z,21.67
2019-05-11T16:14:15.946Z,23.71
2019-05-11T16:16:47.940Z,23.74
2019-05-11T16:19:28.153Z,22.65
2019-05-11T16:21:58.321Z,22.04
2019-05-11T16:24:27.168Z,22.11
2019-05-11T16:26:58.276Z,22.28
2019-05-11T16:29:27.995Z,22.01
2019-05-11T16:31:57.823Z,22.64
2019-05-11T16:34:28.000Z,22.09
2019-05-11T16:36:56.815Z,22.33
2019-05-11T16:39:28.211Z,21.20
2019-05-11T16:41:59.258Z,21.00
2019-05-11T16:44:30.163Z,21.75
2019-05-11T16:47:00.878Z,19.76
2019-05-11T16:49:32.649Z,15.96
2019-05-11T16:52:00.943Z,15.86
2019-05-11T16:54:29.868Z,16.45
2019-05-11T16:56:58.792Z,16.08
2019-05-11T16:59:27.628Z,16.17
2019-05-11T17:01:58.604Z,20.17
2019-05-11T17:04:31.242Z,20.22
2019-05-11T17:07:00.157Z,19.59
2019-05-11T17:09:29.108Z,20.13
2019-05-11T17:11:57.995Z,20.09
2019-05-11T17:14:28.174Z,18.20
2019-05-11T17:16:58.554Z,18.12
2019-05-11T17:19:42.154Z,17.71
2019-05-11T17:21:58.947Z,16.83
2019-05-11T17:24:28.322Z,15.48
2019-05-11T17:26:58.359Z,15.26
2019-05-11T17:29:27.581Z,14.79
2019-05-11T17:31:57.980Z,14.33
2019-05-11T17:34:28.513Z,14.70
2019-05-11T17:37:00.040Z,14.51
2019-05-11T17:39:28.268Z,14.86
2019-05-11T17:41:58.284Z,14.65
2019-05-11T17:44:27.376Z,14.76
2019-05-11T17:46:57.837Z,14.26
2019-05-11T17:49:27.763Z,14.45
2019-05-11T17:51:56.987Z,14.13
2019-05-11T17:54:28.344Z,13.86
2019-05-11T17:56:57.882Z,13.60
2019-05-11T17:59:33.278Z,13.82
2019-05-11T18:02:02.842Z,13.46
2019-05-11T18:04:33.098Z,13.57
2019-05-11T18:07:41.574Z,13.35
2019-05-11T18:10:14.774Z,13.32
2019-05-11T18:12:58.766Z,13.12
2019-05-11T18:15:29.704Z,12.98
2019-05-11T18:18:00.802Z,12.67
2019-05-11T18:20:30.666Z,12.68
2019-05-11T18:23:08.400Z,12.25
2019-05-11T18:25:38.974Z,12.32
2019-05-11T18:28:08.166Z,12.25
2019-05-11T18:30:38.808Z,12.16
2019-05-11T18:33:08.467Z,12.15
2019-05-11T18:35:37.632Z,12.32
2019-05-11T18:38:08.527Z,11.90
2019-05-11T18:40:38.242Z,11.72
2019-05-11T18:43:08.609Z,11.69
2019-05-11T18:45:38.427Z,11.51
2019-05-11T18:48:13.431Z,11.33
2019-05-11T18:50:41.036Z,11.41
2019-05-11T18:53:10.007Z,12.00
2019-05-11T18:55:39.099Z,12.11
2019-05-11T18:58:08.963Z,12.43
2019-05-11T19:00:38.249Z,12.56
2019-05-11T19:03:19.323Z,12.59
2019-05-11T19:05:50.479Z,12.42
2019-05-11T19:08:19.596Z,12.37
2019-05-11T19:10:48.830Z,12.29
2019-05-11T19:13:17.878Z,12.35
2019-05-11T19:15:48.742Z,12.08
2019-05-11T19:18:17.674Z,12.07
2019-05-11T19:20:49.323Z,12.14
2019-05-11T19:23:19.197Z,12.04
2019-05-11T19:25:48.164Z,12.10
2019-05-11T19:28:18.690Z,11.75
2019-05-11T19:30:48.772Z,11.83
2019-05-11T19:33:18.983Z,11.65
2019-05-11T19:35:48.228Z,11.81
2019-05-11T19:38:19.082Z,11.47
2019-05-11T19:40:48.503Z,11.56
2019-05-11T19:43:18.533Z,11.62
2019-05-11T19:45:48.711Z,11.66
2019-05-11T19:48:17.703Z,11.49
2019-05-11T19:51:00.885Z,11.13
2019-05-11T19:53:18.768Z,11.01
2019-05-11T19:55:48.877Z,11.27
2019-05-11T19:58:20.459Z,11.14
2019-05-11T20:00:49.496Z,11.20
2019-05-11T20:03:19.429Z,11.14
2019-05-11T20:05:48.667Z,11.10
2019-05-11T20:08:32.482Z,11.10
2019-05-11T20:11:01.438Z,11.10
2019-05-11T20:13:30.346Z,10.89
2019-05-11T20:15:59.130Z,10.87
2019-05-11T20:18:28.820Z,10.97
2019-05-11T20:20:58.058Z,10.65
2019-05-11T20:23:27.056Z,10.71
2019-05-11T20:25:58.244Z,10.84
2019-05-11T20:28:28.487Z,10.38
2019-05-11T20:31:00.310Z,10.38
2019-05-11T20:33:29.290Z,10.48
2019-05-11T20:35:58.289Z,10.40
2019-05-11T20:38:27.899Z,10.45
2019-05-11T20:40:57.727Z,10.30
2019-05-11T20:43:27.873Z,10.29
2019-05-11T20:45:58.026Z,10.17
2019-05-11T20:48:27.789Z,10.18
2019-05-11T20:50:57.714Z,9.69
2019-05-11T20:53:28.657Z,9.93
2019-05-11T20:55:58.270Z,9.83
2019-05-11T20:58:28.930Z,9.75
2019-05-11T21:00:58.238Z,9.67
2019-05-11T21:03:29.272Z,9.52
2019-05-11T21:05:59.253Z,9.73
2019-05-11T21:08:28.427Z,9.36
2019-05-11T21:10:58.177Z,9.62
2019-05-11T21:13:28.240Z,9.41
2019-05-11T21:15:59.281Z,9.49
2019-05-11T21:18:28.794Z,9.21
2019-05-11T21:20:57.893Z,9.18
2019-05-11T21:23:28.938Z,9.25
2019-05-11T21:25:58.759Z,9.34
2019-05-11T21:28:30.376Z,9.09
2019-05-11T21:30:58.634Z,9.03
2019-05-11T21:33:28.381Z,9.06
2019-05-11T21:35:58.036Z,9.09
2019-05-11T21:38:31.621Z,8.90
2019-05-11T21:40:58.649Z,8.96
2019-05-11T21:43:27.550Z,8.78
2019-05-11T21:45:58.272Z,8.83
2019-05-11T21:48:28.043Z,8.73
2019-05-11T21:50:59.740Z,8.74
2019-05-11T21:53:28.788Z,8.75
2019-05-11T21:55:58.475Z,8.62
2019-05-11T21:58:28.521Z,8.68
2019-05-11T22:00:57.676Z,8.71
2019-05-11T22:03:28.058Z,8.55
2019-05-11T22:05:57.845Z,8.38
2019-05-11T22:08:28.374Z,8.38
2019-05-11T22:11:00.042Z,8.35
2019-05-11T22:13:29.012Z,8.33
2019-05-11T22:15:58.197Z,8.57
2019-05-11T22:18:31.299Z,8.13
2019-05-11T22:20:58.167Z,8.27
2019-05-11T22:23:35.664Z,8.15
2019-05-11T22:26:04.715Z,8.14
2019-05-11T22:28:33.621Z,7.90
2019-05-11T22:31:02.622Z,8.11
2019-05-11T22:33:31.520Z,7.97
2019-05-11T22:36:00.326Z,8.11
2019-05-11T22:38:30.290Z,7.98
2019-05-11T22:40:59.193Z,7.71
2019-05-11T22:43:28.594Z,7.81
2019-05-11T22:45:58.170Z,8.00
2019-05-11T22:48:27.043Z,7.91
2019-05-11T22:50:56.019Z,7.92
2019-05-11T22:53:24.839Z,7.80
2019-05-11T22:55:53.648Z,8.02
2019-05-11T22:58:22.439Z,7.57
2019-05-11T23:01:00.219Z,7.57
2019-05-11T23:03:29.079Z,7.69
2019-05-11T23:05:58.249Z,7.70
2019-05-11T23:08:26.990Z,7.60
2019-05-11T23:11:03.425Z,7.39
2019-05-11T23:13:32.450Z,7.30
2019-05-11T23:16:01.270Z,7.57
2019-05-11T23:18:30.065Z,7.29
2019-05-11T23:20:58.934Z,7.38
2019-05-11T23:23:28.396Z,7.38
2019-05-11T23:25:57.988Z,7.28
2019-05-11T23:28:29.537Z,7.13
2019-05-11T23:30:58.414Z,7.07
2019-05-11T23:33:27.947Z,7.18
2019-05-11T23:35:58.781Z,6.92
2019-05-11T23:38:28.208Z,7.37
2019-05-11T23:40:58.701Z,7.22
2019-05-11T23:43:29.975Z,6.80
2019-05-11T23:45:58.464Z,7.04
2019-05-11T23:48:28.024Z,7.12
2019-05-11T23:50:58.058Z,7.13
2019-05-11T23:53:28.256Z,6.85
2019-05-11T23:55:57.939Z,6.81
2019-05-11T23:58:28.135Z,6.64
